createdAt,value
2023-02-24T00:02:15.689Z,8.98
2023-02-24T00:07:18.744Z,9.11
2023-02-24T00:12:20.301Z,9.07
2023-02-24T00:17:21.869Z,9.13
2023-02-24T00:22:23.442Z,9.08
2023-02-24T00:27:25.023Z,9.14
2023-02-24T00:32:26.832Z,9.17
2023-02-24T00:37:28.541Z,9.11
2023-02-24T00:42:30.082Z,9.07
2023-02-24T00:47:31.602Z,9.06
2023-02-24T00:52:33.286Z,8.97
2023-02-24T00:57:34.815Z,8.89
2023-02-24T01:02:36.505Z,8.84
2023-02-24T01:07:38.241Z,8.62
2023-02-24T01:12:39.925Z,8.46
2023-02-24T01:17:41.540Z,8.39
2023-02-24T01:22:48.799Z,8.43
2023-02-24T01:27:50.921Z,8.30
2023-02-24T01:32:52.782Z,8.26
2023-02-24T01:37:54.534Z,8.29
2023-02-24T01:42:56.096Z,8.25
2023-02-24T01:48:02.937Z,8.24
2023-02-24T01:53:07.355Z,8.17
2023-02-24T01:58:18.145Z,8.09
2023-02-24T02:03:33.820Z,7.96
2023-02-24T02:08:39.135Z,7.92
2023-02-24T02:13:44.329Z,7.89
2023-02-24T02:18:52.819Z,7.95
2023-02-24T02:24:38.001Z,7.89
2023-02-24T02:30:05.747Z,7.96
2023-02-24T02:35:10.349Z,7.93
2023-02-24T02:40:28.629Z,7.79
2023-02-24T02:45:42.737Z,7.66
2023-02-24T02:50:50.109Z,7.72
2023-02-24T02:56:19.569Z,7.72
2023-02-24T03:01:25.008Z,7.60
2023-02-24T03:06:32.198Z,7.71
2023-02-24T03:11:33.813Z,7.70
2023-02-24T03:16:36.044Z,7.62
2023-02-24T03:21:46.653Z,7.59
2023-02-24T03:26:52.979Z,7.53
2023-02-24T03:32:19.465Z,7.51
2023-02-24T03:37:21.905Z,7.43
2023-02-24T03:42:28.393Z,7.40
2023-02-24T03:47:33.052Z,7.46
2023-02-24T03:53:08.055Z,7.47
2023-02-24T03:58:43.968Z,7.38
2023-02-24T04:04:09.890Z,7.39
2023-02-24T04:09:44.895Z,7.41
2023-02-24T04:15:11.219Z,7.46
2023-02-24T04:20:15.822Z,7.39
2023-02-24T04:25:25.955Z,7.28
2023-02-24T04:30:36.211Z,7.26
2023-02-24T04:35:39.005Z,7.25
2023-02-24T04:40:40.745Z,7.17
2023-02-24T04:45:42.568Z,7.04
2023-02-24T04:50:44.427Z,7.11
2023-02-24T04:55:47.843Z,7.06
2023-02-24T05:00:51.927Z,7.06
2023-02-24T05:05:56.527Z,6.98
2023-02-24T05:10:58.150Z,6.90
2023-02-24T05:16:05.051Z,6.92
2023-02-24T05:21:09.421Z,7.02
2023-02-24T05:26:14.479Z,6.92
2023-02-24T05:31:20.829Z,6.92
2023-02-24T05:36:22.668Z,6.90
2023-02-24T05:41:26.928Z,6.89
2023-02-24T05:46:30.313Z,6.93
2023-02-24T05:51:33.087Z,6.96
2023-02-24T05:56:37.283Z,6.90
2023-02-24T06:01:41.347Z,6.89
2023-02-24T06:06:43.137Z,6.79
2023-02-24T06:11:45.401Z,6.66
2023-02-24T06:16:47.123Z,6.68
2023-02-24T06:21:48.791Z,6.64
2023-02-24T06:26:50.489Z,6.54
2023-02-24T06:31:52.208Z,6.44
2023-02-24T06:36:53.915Z,6.34
2023-02-24T06:41:55.433Z,6.39
2023-02-24T06:46:57.959Z,6.36
2023-02-24T06:51:59.940Z,6.39
2023-02-24T06:57:01.978Z,6.50
2023-02-24T07:02:03.647Z,6.53
2023-02-24T07:07:05.250Z,6.45
2023-02-24T07:12:07.024Z,6.45
2023-02-24T07:17:08.800Z,6.57
2023-02-24T07:22:10.861Z,6.85
2023-02-24T07:27:16.930Z,6.93
2023-02-24T07:32:18.584Z,7.10
2023-02-24T07:37:20.324Z,7.20
2023-02-24T07:42:21.969Z,7.26
2023-02-24T07:47:29.230Z,7.17
2023-02-24T07:52:30.852Z,7.11
2023-02-24T07:57:32.435Z,7.06
2023-02-24T08:02:33.999Z,7.21
2023-02-24T08:07:35.573Z,7.23
2023-02-24T08:12:40.487Z,7.38
2023-02-24T08:17:41.998Z,7.42
2023-02-24T08:22:45.470Z,7.57
2023-02-24T08:27:58.465Z,7.56
2023-02-24T08:33:10.430Z,7.69
2023-02-24T08:38:20.010Z,7.85
2023-02-24T08:43:30.778Z,7.66
2023-02-24T08:48:39.125Z,7.77
2023-02-24T08:53:40.872Z,7.62
2023-02-24T08:58:45.456Z,7.63
2023-02-24T09:03:49.338Z,7.56
2023-02-24T09:08:53.748Z,7.57
2023-02-24T09:13:55.354Z,7.61
2023-02-24T09:18:56.871Z,7.46
2023-02-24T09:23:59.761Z,7.27
2023-02-24T09:29:01.339Z,7.35
2023-02-24T09:34:02.988Z,7.52
2023-02-24T09:39:04.538Z,7.55
2023-02-24T09:44:17.181Z,7.55
2023-02-24T09:49:20.725Z,7.74
2023-02-24T09:54:22.652Z,7.67
2023-02-24T09:59:36.179Z,7.77
2023-02-24T10:04:49.971Z,8.17
2023-02-24T10:10:20.130Z,8.42
2023-02-24T10:15:44.691Z,8.37
2023-02-24T10:20:46.572Z,8.03
2023-02-24T10:25:53.771Z,8.04
2023-02-24T10:31:11.019Z,8.30
2023-02-24T10:36:22.110Z,8.05
2023-02-24T10:41:24.208Z,8.06
2023-02-24T10:46:40.695Z,8.25
2023-02-24T10:51:54.069Z,8.17
2023-02-24T10:56:55.712Z,8.00
2023-02-24T11:02:19.338Z,7.83
2023-02-24T11:07:21.522Z,8.07
2023-02-24T11:12:24.659Z,7.96
2023-02-24T11:17:26.298Z,8.17
2023-02-24T11:22:32.736Z,7.84
2023-02-24T11:27:34.832Z,7.82
2023-02-24T11:32:39.469Z,7.90
2023-02-24T11:37:43.686Z,7.84
2023-02-24T11:43:02.941Z,7.63
2023-02-24T11:48:22.527Z,7.45
2023-02-24T11:53:32.253Z,7.38
2023-02-24T11:58:41.081Z,6.90
2023-02-24T12:04:01.406Z,6.57
2023-02-24T12:09:18.385Z,6.19
2023-02-24T12:14:25.637Z,6.23
2023-02-24T12:19:35.134Z,6.10
2023-02-24T12:24:37.468Z,6.25
2023-02-24T12:29:54.022Z,6.26
2023-02-24T12:35:27.414Z,6.05
2023-02-24T12:40:53.558Z,6.27
2023-02-24T12:46:05.337Z,6.21
2023-02-24T12:51:29.008Z,6.22
2023-02-24T12:56:51.973Z,6.26
2023-02-24T13:02:23.116Z,6.09
2023-02-24T13:07:39.787Z,5.94
2023-02-24T13:13:00.271Z,6.04
2023-02-24T13:18:02.318Z,6.30
2023-02-24T13:23:20.008Z,6.26
2023-02-24T13:28:30.712Z,5.90
2023-02-24T13:33:39.676Z,5.77
2023-02-24T13:38:46.921Z,5.73
2023-02-24T13:44:00.955Z,5.64
2023-02-24T13:49:26.682Z,5.75
2023-02-24T13:54:59.122Z,5.63
2023-02-24T14:00:15.894Z,5.71
2023-02-24T14:05:26.524Z,5.59
2023-02-24T14:10:30.820Z,5.69
2023-02-24T14:15:34.130Z,5.82
2023-02-24T14:20:36.739Z,5.81
2023-02-24T14:25:39.000Z,5.92
2023-02-24T14:30:41.195Z,5.93
2023-02-24T14:35:46.493Z,5.92
2023-02-24T14:40:48.852Z,5.97
2023-02-24T14:45:52.255Z,5.97
2023-02-24T14:50:58.004Z,6.16
2023-02-24T14:56:04.000Z,6.23
2023-02-24T15:01:20.037Z,6.01
2023-02-24T15:06:30.844Z,6.28
2023-02-24T15:11:33.304Z,6.29
2023-02-24T15:16:47.194Z,6.09
2023-02-24T15:21:48.764Z,6.12
2023-02-24T15:26:59.344Z,6.07
2023-02-24T15:32:03.917Z,6.00
2023-02-24T15:37:20.583Z,6.13
2023-02-24T15:42:28.077Z,6.10
2023-02-24T15:47:44.092Z,6.05
2023-02-24T15:52:45.998Z,6.02
2023-02-24T15:57:55.568Z,6.05
2023-02-24T16:02:58.108Z,6.05
2023-02-24T16:07:59.752Z,6.19
2023-02-24T16:13:02.077Z,6.18
2023-02-24T16:18:04.041Z,6.26
2023-02-24T16:23:06.037Z,6.29
2023-02-24T16:28:13.799Z,6.29
2023-02-24T16:33:18.536Z,6.29
2023-02-24T16:38:21.464Z,6.28
2023-02-24T16:43:23.285Z,6.29
2023-02-24T16:48:26.819Z,6.37
2023-02-24T16:53:28.479Z,6.48
2023-02-24T16:58:30.533Z,6.62
2023-02-24T17:03:41.544Z,6.65
2023-02-24T17:08:43.206Z,6.58
2023-02-24T17:13:45.057Z,6.74
2023-02-24T17:18:46.718Z,6.71
2023-02-24T17:23:48.306Z,6.82
2023-02-24T17:28:54.037Z,6.76
2023-02-24T17:33:55.539Z,6.70
2023-02-24T17:38:57.123Z,6.54
2023-02-24T17:43:58.782Z,6.55
2023-02-24T17:49:00.272Z,6.56
2023-02-24T17:54:01.918Z,6.53
2023-02-24T17:59:03.605Z,6.55
2023-02-24T18:04:05.195Z,6.64
2023-02-24T18:09:06.773Z,6.51
2023-02-24T18:14:08.431Z,6.57
2023-02-24T18:19:10.136Z,6.58
2023-02-24T18:24:12.544Z,6.59
2023-02-24T18:29:14.299Z,6.51
2023-02-24T18:34:15.842Z,6.47
2023-02-24T18:39:17.378Z,6.50
2023-02-24T18:44:19.117Z,6.66
2023-02-24T18:49:20.696Z,6.78
2023-02-24T18:54:22.425Z,6.74
2023-02-24T18:59:24.102Z,6.77
2023-02-24T19:04:25.637Z,6.74
2023-02-24T19:09:27.363Z,6.86
2023-02-24T19:14:28.966Z,6.87
2023-02-24T19:19:30.465Z,6.90
2023-02-24T19:24:32.061Z,6.91
2023-02-24T19:29:33.856Z,6.84
2023-02-24T19:34:36.831Z,6.68
2023-02-24T19:39:38.417Z,6.32
2023-02-24T19:44:39.941Z,6.06
2023-02-24T19:49:41.650Z,6.08
2023-02-24T19:54:43.354Z,6.08
2023-02-24T19:59:44.966Z,5.98
2023-02-24T20:04:46.594Z,5.83
2023-02-24T20:09:48.658Z,5.72
2023-02-24T20:14:50.250Z,5.73
2023-02-24T20:19:51.821Z,5.59
2023-02-24T20:24:53.488Z,5.53
2023-02-24T20:29:56.033Z,5.63
2023-02-24T20:34:57.749Z,5.64
2023-02-24T20:39:59.407Z,5.77
2023-02-24T20:45:01.011Z,5.74
2023-02-24T20:50:03.002Z,5.62
2023-02-24T20:55:04.918Z,5.67
2023-02-24T21:00:07.244Z,5.79
2023-02-24T21:05:10.188Z,5.89
2023-02-24T21:10:12.198Z,5.83
2023-02-24T21:15:13.776Z,5.81
2023-02-24T21:20:15.573Z,5.83
2023-02-24T21:25:17.150Z,5.71
2023-02-24T21:30:18.965Z,5.72
2023-02-24T21:35:20.598Z,5.79
2023-02-24T21:40:22.138Z,5.85
2023-02-24T21:45:23.654Z,5.95
2023-02-24T21:50:25.295Z,6.01
2023-02-24T21:55:26.940Z,5.89
2023-02-24T22:00:28.482Z,5.80
2023-02-24T22:05:31.670Z,5.74
2023-02-24T22:10:58.061Z,5.79
2023-02-24T22:16:01.089Z,5.73
2023-02-24T22:21:08.205Z,5.73
2023-02-24T22:26:12.087Z,5.77
2023-02-24T22:31:17.075Z,5.66
2023-02-24T22:36:23.044Z,5.76
2023-02-24T22:41:27.740Z,5.78
2023-02-24T22:46:35.898Z,5.81
2023-02-24T22:51:38.377Z,5.83
2023-02-24T22:56:40.198Z,5.81
2023-02-24T23:01:42.301Z,5.69
2023-02-24T23:06:44.531Z,5.78
2023-02-24T23:11:46.480Z,5.81
2023-02-24T23:16:52.057Z,5.76
2023-02-24T23:21:54.401Z,5.83
2023-02-24T23:26:58.453Z,5.79
2023-02-24T23:32:00.444Z,5.78
2023-02-24T23:37:02.839Z,5.75
2023-02-24T23:42:05.228Z,5.91
2023-02-24T23:47:07.929Z,5.87
2023-02-24T23:52:09.914Z,5.94
2023-02-24T23:57:11.726Z,5.90
